sensor_id;sensor_type;location;lat;lon;timestamp;pressure;altitude;pressure_sealevel;temperature;humidity
59877;BME280;45749;51.140;17.184;2023-03-16T00:01:14;100496.22;;;0.49;85.06
59877;BME280;45749;51.140;17.184;2023-03-16T00:03:39;100498.88;;;0.47;85.47
59877;BME280;45749;51.140;17.184;2023-03-16T00:06:05;100500.66;;;0.45;85.25
59877;BME280;45749;51.140;17.184;2023-03-16T00:08:30;100491.19;;;0.44;85.54
59877;BME280;45749;51.140;17.184;2023-03-16T00:10:55;100497.38;;;0.40;85.38
59877;BME280;45749;51.140;17.184;2023-03-16T00:13:22;100499.09;;;0.39;85.84
59877;BME280;45749;51.140;17.184;2023-03-16T00:15:49;100498.38;;;0.34;85.66
59877;BME280;45749;51.140;17.184;2023-03-16T00:18:15;100497.63;;;0.31;86.05
59877;BME280;45749;51.140;17.184;2023-03-16T00:20:41;100504.47;;;0.33;86.01
59877;BME280;45749;51.140;17.184;2023-03-16T00:23:06;100505.44;;;0.29;86.06
59877;BME280;45749;51.140;17.184;2023-03-16T00:25:31;100515.88;;;0.26;85.95
59877;BME280;45749;51.140;17.184;2023-03-16T00:27:58;100510.69;;;0.26;86.13
59877;BME280;45749;51.140;17.184;2023-03-16T00:30:23;100515.09;;;0.24;86.38
59877;BME280;45749;51.140;17.184;2023-03-16T00:32:49;100516.09;;;0.20;86.39
59877;BME280;45749;51.140;17.184;2023-03-16T00:35:17;100516.16;;;0.17;86.21
59877;BME280;45749;51.140;17.184;2023-03-16T00:37:43;100519.72;;;0.13;86.50
59877;BME280;45749;51.140;17.184;2023-03-16T00:40:09;100517.19;;;0.10;86.39
59877;BME280;45749;51.140;17.184;2023-03-16T00:42:36;100524.09;;;0.11;86.55
59877;BME280;45749;51.140;17.184;2023-03-16T00:45:02;100525.88;;;0.09;86.76
59877;BME280;45749;51.140;17.184;2023-03-16T00:47:32;100522.50;;;0.05;86.94
59877;BME280;45749;51.140;17.184;2023-03-16T00:49:59;100520.91;;;0.01;86.80
59877;BME280;45749;51.140;17.184;2023-03-16T00:52:25;100519.97;;;0.04;87.06
59877;BME280;45749;51.140;17.184;2023-03-16T00:54:53;100526.03;;;0.03;86.81
59877;BME280;45749;51.140;17.184;2023-03-16T00:57:21;100527.84;;;0.01;87.03
59877;BME280;45749;51.140;17.184;2023-03-16T00:59:47;100525.31;;;-0.03;87.14
59877;BME280;45749;51.140;17.184;2023-03-16T01:02:15;100532.97;;;0.02;87.32
59877;BME280;45749;51.140;17.184;2023-03-16T01:04:41;100542.59;;;-0.02;87.06
59877;BME280;45749;51.140;17.184;2023-03-16T01:07:10;100540.97;;;-0.07;87.32
59877;BME280;45749;51.140;17.184;2023-03-16T01:09:37;100540.22;;;-0.11;87.21
59877;BME280;45749;51.140;17.184;2023-03-16T01:12:08;100539.41;;;-0.13;87.25
59877;BME280;45749;51.140;17.184;2023-03-16T01:14:34;100539.38;;;-0.11;87.37
59877;BME280;45749;51.140;17.184;2023-03-16T01:17:01;100544.56;;;-0.11;87.52
59877;BME280;45749;51.140;17.184;2023-03-16T01:19:27;100546.44;;;-0.16;87.13
59877;BME280;45749;51.140;17.184;2023-03-16T01:21:53;100543.09;;;-0.21;87.77
59877;BME280;45749;51.140;17.184;2023-03-16T01:24:18;100553.53;;;-0.25;87.57
59877;BME280;45749;51.140;17.184;2023-03-16T01:26:44;100550.16;;;-0.28;87.66
59877;BME280;45749;51.140;17.184;2023-03-16T01:29:10;100555.34;;;-0.28;87.87
59877;BME280;45749;51.140;17.184;2023-03-16T01:31:37;100557.97;;;-0.30;87.98
59877;BME280;45749;51.140;17.184;2023-03-16T01:34:03;100565.88;;;-0.34;88.21
59877;BME280;45749;51.140;17.184;2023-03-16T01:36:29;100553.81;;;-0.35;87.94
59877;BME280;45749;51.140;17.184;2023-03-16T01:38:56;100565.09;;;-0.38;88.27
59877;BME280;45749;51.140;17.184;2023-03-16T01:41:21;100563.41;;;-0.40;88.04
59877;BME280;45749;51.140;17.184;2023-03-16T01:43:47;100568.66;;;-0.42;88.01
59877;BME280;45749;51.140;17.184;2023-03-16T01:46:20;100572.09;;;-0.43;88.25
59877;BME280;45749;51.140;17.184;2023-03-16T01:51:36;100577.28;;;-0.43;88.51
59877;BME280;45749;51.140;17.184;2023-03-16T01:54:33;100578.19;;;-0.42;88.22
59877;BME280;45749;51.140;17.184;2023-03-16T01:57:09;100566.91;;;-0.43;88.07
59877;BME280;45749;51.140;17.184;2023-03-16T01:59:45;100567.81;;;-0.42;87.99
59877;BME280;45749;51.140;17.184;2023-03-16T02:02:14;100570.41;;;-0.42;88.03
59877;BME280;45749;51.140;17.184;2023-03-16T02:04:44;100580.75;;;-0.42;87.92
59877;BME280;45749;51.140;17.184;2023-03-16T02:07:12;100579.94;;;-0.44;88.12
59877;BME280;45749;51.140;17.184;2023-03-16T02:09:43;100581.75;;;-0.48;88.10
59877;BME280;45749;51.140;17.184;2023-03-16T02:12:11;100581.69;;;-0.47;88.17
59877;BME280;45749;51.140;17.184;2023-03-16T02:14:46;100582.66;;;-0.51;88.64
59877;BME280;45749;51.140;17.184;2023-03-16T02:17:17;100583.66;;;-0.56;88.52
59877;BME280;45749;51.140;17.184;2023-03-16T02:22:17;100587.19;;;-0.59;88.78
59877;BME280;45749;51.140;17.184;2023-03-16T02:24:43;100588.88;;;-0.58;88.67
59877;BME280;45749;51.140;17.184;2023-03-16T02:30:16;100580.34;;;-0.63;88.90
59877;BME280;45749;51.140;17.184;2023-03-16T02:32:43;100588.25;;;-0.67;88.86
59877;BME280;45749;51.140;17.184;2023-03-16T02:35:10;100588.25;;;-0.67;89.20
59877;BME280;45749;51.140;17.184;2023-03-16T02:37:37;100583.94;;;-0.68;89.27
59877;BME280;45749;51.140;17.184;2023-03-16T02:42:41;100595.19;;;-0.69;89.12
59877;BME280;45749;51.140;17.184;2023-03-16T02:45:07;100589.22;;;-0.73;89.22
59877;BME280;45749;51.140;17.184;2023-03-16T02:49:59;100596.22;;;-0.77;89.61
59877;BME280;45749;51.140;17.184;2023-03-16T02:52:25;100597.94;;;-0.77;89.35
59877;BME280;45749;51.140;17.184;2023-03-16T02:54:50;100603.97;;;-0.77;89.53
59877;BME280;45749;51.140;17.184;2023-03-16T02:57:16;100610.00;;;-0.75;89.42
59877;BME280;45749;51.140;17.184;2023-03-16T02:59:41;100617.78;;;-0.75;89.28
59877;BME280;45749;51.140;17.184;2023-03-16T03:02:07;100616.09;;;-0.77;89.40
59877;BME280;45749;51.140;17.184;2023-03-16T03:04:32;100615.25;;;-0.78;89.55
59877;BME280;45749;51.140;17.184;2023-03-16T03:06:58;100611.81;;;-0.78;89.88
59877;BME280;45749;51.140;17.184;2023-03-16T03:09:29;100607.59;;;-0.82;89.65
59877;BME280;45749;51.140;17.184;2023-03-16T03:11:56;100610.13;;;-0.81;89.60
59877;BME280;45749;51.140;17.184;2023-03-16T03:14:22;100618.81;;;-0.83;89.67
59877;BME280;45749;51.140;17.184;2023-03-16T03:16:47;100617.13;;;-0.84;89.75
59877;BME280;45749;51.140;17.184;2023-03-16T03:19:13;100621.38;;;-0.82;90.18
59877;BME280;45749;51.140;17.184;2023-03-16T03:21:39;100625.72;;;-0.82;89.89
59877;BME280;45749;51.140;17.184;2023-03-16T03:24:05;100619.59;;;-0.80;89.91
59877;BME280;45749;51.140;17.184;2023-03-16T03:26:30;100622.16;;;-0.78;90.05
59877;BME280;45749;51.140;17.184;2023-03-16T03:28:56;100623.94;;;-0.80;89.83
59877;BME280;45749;51.140;17.184;2023-03-16T03:31:21;100627.44;;;-0.83;89.97
59877;BME280;45749;51.140;17.184;2023-03-16T03:33:47;100628.31;;;-0.84;90.00
59877;BME280;45749;51.140;17.184;2023-03-16T03:36:13;100629.22;;;-0.85;90.34
59877;BME280;45749;51.140;17.184;2023-03-16T03:38:39;100636.94;;;-0.83;89.95
59877;BME280;45749;51.140;17.184;2023-03-16T03:41:04;100636.09;;;-0.82;90.38
59877;BME280;45749;51.140;17.184;2023-03-16T03:43:33;100640.38;;;-0.83;90.34
59877;BME280;45749;51.140;17.184;2023-03-16T03:46:00;100637.78;;;-0.81;90.82
59877;BME280;45749;51.140;17.184;2023-03-16T03:48:26;100636.09;;;-0.84;90.61
59877;BME280;45749;51.140;17.184;2023-03-16T03:50:52;100644.75;;;-0.85;90.55
59877;BME280;45749;51.140;17.184;2023-03-16T03:53:18;100643.91;;;-0.85;90.51
59877;BME280;45749;51.140;17.184;2023-03-16T03:55:44;100642.19;;;-0.86;90.73
59877;BME280;45749;51.140;17.184;2023-03-16T03:58:10;100645.69;;;-0.87;90.46
59877;BME280;45749;51.140;17.184;2023-03-16T04:00:36;100648.16;;;-0.83;90.61
59877;BME280;45749;51.140;17.184;2023-03-16T04:03:02;100645.56;;;-0.81;90.48
59877;BME280;45749;51.140;17.184;2023-03-16T04:05:28;100645.56;;;-0.81;90.47
59877;BME280;45749;51.140;17.184;2023-03-16T04:07:54;100648.19;;;-0.84;90.42
59877;BME280;45749;51.140;17.184;2023-03-16T04:10:25;100653.41;;;-0.86;90.73
59877;BME280;45749;51.140;17.184;2023-03-16T04:12:50;100656.00;;;-0.86;90.62
59877;BME280;45749;51.140;17.184;2023-03-16T04:15:16;100644.78;;;-0.86;90.76
59877;BME280;45749;51.140;17.184;2023-03-16T04:17:41;100656.00;;;-0.86;90.51
59877;BME280;45749;51.140;17.184;2023-03-16T04:20:07;100650.78;;;-0.84;90.85
59877;BME280;45749;51.140;17.184;2023-03-16T04:22:38;100655.06;;;-0.82;90.94
59877;BME280;45749;51.140;17.184;2023-03-16T04:25:04;100663.69;;;-0.83;90.44
59877;BME280;45749;51.140;17.184;2023-03-16T04:27:29;100667.19;;;-0.84;90.60
59877;BME280;45749;51.140;17.184;2023-03-16T04:30:03;100663.75;;;-0.86;90.60
59877;BME280;45749;51.140;17.184;2023-03-16T04:32:29;100662.84;;;-0.83;90.72
59877;BME280;45749;51.140;17.184;2023-03-16T04:34:56;100673.16;;;-0.80;90.65
59877;BME280;45749;51.140;17.184;2023-03-16T04:37:21;100672.25;;;-0.79;90.36
59877;BME280;45749;51.140;17.184;2023-03-16T04:39:47;100669.72;;;-0.81;90.24
59877;BME280;45749;51.140;17.184;2023-03-16T04:42:12;100666.22;;;-0.80;90.28
59877;BME280;45749;51.140;17.184;2023-03-16T04:44:37;100679.25;;;-0.81;90.47
59877;BME280;45749;51.140;17.184;2023-03-16T04:47:09;100675.84;;;-0.85;90.59
59877;BME280;45749;51.140;17.184;2023-03-16T04:49:35;100687.09;;;-0.86;90.30
59877;BME280;45749;51.140;17.184;2023-03-16T04:52:00;100681.06;;;-0.86;90.72
59877;BME280;45749;51.140;17.184;2023-03-16T04:54:26;100687.09;;;-0.86;90.34
59877;BME280;45749;51.140;17.184;2023-03-16T04:56:52;100687.13;;;-0.87;90.52
59877;BME280;45749;51.140;17.184;2023-03-16T04:59:17;100691.47;;;-0.89;90.64
59877;BME280;45749;51.140;17.184;2023-03-16T05:01:42;100686.34;;;-0.92;90.71
59877;BME280;45749;51.140;17.184;2023-03-16T05:04:08;100685.50;;;-0.93;90.64
59877;BME280;45749;51.140;17.184;2023-03-16T05:06:33;100689.78;;;-0.90;90.54
59877;BME280;45749;51.140;17.184;2023-03-16T05:08:59;100693.22;;;-0.88;90.81
59877;BME280;45749;51.140;17.184;2023-03-16T05:11:25;100697.56;;;-0.90;90.71
59877;BME280;45749;51.140;17.184;2023-03-16T05:13:50;100695.91;;;-0.95;90.85
59877;BME280;45749;51.140;17.184;2023-03-16T05:16:16;100697.66;;;-0.95;90.84
59877;BME280;45749;51.140;17.184;2023-03-16T05:18:41;100697.66;;;-0.95;91.10
59877;BME280;45749;51.140;17.184;2023-03-16T05:21:07;100700.25;;;-0.97;91.08
59877;BME280;45749;51.140;17.184;2023-03-16T05:23:32;100699.41;;;-0.97;91.08
59877;BME280;45749;51.140;17.184;2023-03-16T05:25:57;100695.06;;;-0.95;91.14
59877;BME280;45749;51.140;17.184;2023-03-16T05:28:26;100695.06;;;-0.95;91.24
59877;BME280;45749;51.140;17.184;2023-03-16T05:30:52;100698.56;;;-0.98;91.02
59877;BME280;45749;51.140;17.184;2023-03-16T05:33:17;100699.38;;;-0.96;91.14
59877;BME280;45749;51.140;17.184;2023-03-16T05:35:43;100707.97;;;-0.93;91.07
59877;BME280;45749;51.140;17.184;2023-03-16T05:38:08;100708.00;;;-0.95;91.24
59877;BME280;45749;51.140;17.184;2023-03-16T05:40:37;100703.69;;;-0.95;91.14
59877;BME280;45749;51.140;17.184;2023-03-16T05:43:03;100707.91;;;-0.90;91.12
59877;BME280;45749;51.140;17.184;2023-03-16T05:45:29;100710.56;;;-0.92;91.20
59877;BME280;45749;51.140;17.184;2023-03-16T05:47:55;100708.81;;;-0.91;91.51
59877;BME280;45749;51.140;17.184;2023-03-16T05:50:21;100714.84;;;-0.91;91.61
59877;BME280;45749;51.140;17.184;2023-03-16T05:52:47;100709.59;;;-0.89;91.64
59877;BME280;45749;51.140;17.184;2023-03-16T05:55:14;100717.38;;;-0.89;91.46
59877;BME280;45749;51.140;17.184;2023-03-16T05:57:40;100720.81;;;-0.87;91.64
59877;BME280;45749;51.140;17.184;2023-03-16T06:00:07;100720.75;;;-0.84;92.12
59877;BME280;45749;51.140;17.184;2023-03-16T06:02:44;100719.91;;;-0.85;91.61
59877;BME280;45749;51.140;17.184;2023-03-16T06:05:14;100719.97;;;-0.88;91.86
59877;BME280;45749;51.140;17.184;2023-03-16T06:07:40;100728.53;;;-0.84;91.90
59877;BME280;45749;51.140;17.184;2023-03-16T06:10:06;100732.81;;;-0.83;92.21
59877;BME280;45749;51.140;17.184;2023-03-16T06:12:32;100736.25;;;-0.81;92.20
59877;BME280;45749;51.140;17.184;2023-03-16T06:15:01;100743.06;;;-0.77;92.24
59877;BME280;45749;51.140;17.184;2023-03-16T06:17:26;100743.91;;;-0.77;92.22
59877;BME280;45749;51.140;17.184;2023-03-16T06:19:52;100744.75;;;-0.76;92.45
59877;BME280;45749;51.140;17.184;2023-03-16T06:22:17;100740.41;;;-0.74;92.41
59877;BME280;45749;51.140;17.184;2023-03-16T06:24:43;100755.03;;;-0.70;92.44
59877;BME280;45749;51.140;17.184;2023-03-16T06:27:08;100755.84;;;-0.68;92.76
59877;BME280;45749;51.140;17.184;2023-03-16T06:29:34;100754.94;;;-0.65;93.24
59877;BME280;45749;51.140;17.184;2023-03-16T06:31:59;100759.19;;;-0.61;92.85
59877;BME280;45749;51.140;17.184;2023-03-16T06:34:25;100760.94;;;-0.62;93.18
59877;BME280;45749;51.140;17.184;2023-03-16T06:36:50;100758.28;;;-0.59;92.95
59877;BME280;45749;51.140;17.184;2023-03-16T06:39:16;100758.22;;;-0.56;93.21
59877;BME280;45749;51.140;17.184;2023-03-16T06:41:41;100757.28;;;-0.53;93.22
59877;BME280;45749;51.140;17.184;2023-03-16T06:44:09;100761.56;;;-0.51;93.11
59877;BME280;45749;51.140;17.184;2023-03-16T06:46:34;100764.91;;;-0.45;92.92
59877;BME280;45749;51.140;17.184;2023-03-16T06:49:00;100761.38;;;-0.43;93.38
59877;BME280;45749;51.140;17.184;2023-03-16T06:51:26;100759.63;;;-0.39;92.90
59877;BME280;45749;51.140;17.184;2023-03-16T06:53:51;100763.78;;;-0.34;93.18
59877;BME280;45749;51.140;17.184;2023-03-16T06:56:17;100758.53;;;-0.29;92.77
59877;BME280;45749;51.140;17.184;2023-03-16T06:58:42;100765.34;;;-0.25;92.90
59877;BME280;45749;51.140;17.184;2023-03-16T07:01:08;100771.31;;;-0.21;93.22
59877;BME280;45749;51.140;17.184;2023-03-16T07:03:33;100773.78;;;-0.15;92.81
59877;BME280;45749;51.140;17.184;2023-03-16T07:05:59;100769.34;;;-0.09;93.03
59877;BME280;45749;51.140;17.184;2023-03-16T07:08:24;100765.75;;;-0.03;93.11
59877;BME280;45749;51.140;17.184;2023-03-16T07:10:50;100769.94;;;0.03;93.00
59877;BME280;45749;51.140;17.184;2023-03-16T07:13:16;100773.28;;;0.08;93.12
59877;BME280;45749;51.140;17.184;2023-03-16T07:15:41;100772.31;;;0.13;92.88
59877;BME280;45749;51.140;17.184;2023-03-16T07:18:08;100775.66;;;0.18;93.01
59877;BME280;45749;51.140;17.184;2023-03-16T07:20:36;100779.84;;;0.24;93.02
59877;BME280;45749;51.140;17.184;2023-03-16T07:23:02;100781.47;;;0.30;92.81
59877;BME280;45749;51.140;17.184;2023-03-16T07:25:29;100786.47;;;0.36;93.05
59877;BME280;45749;51.140;17.184;2023-03-16T07:27:55;100788.94;;;0.42;92.65
59877;BME280;45749;51.140;17.184;2023-03-16T07:30:21;100791.38;;;0.50;92.66
59877;BME280;45749;51.140;17.184;2023-03-16T07:32:46;100786.00;;;0.56;92.84
59877;BME280;45749;51.140;17.184;2023-03-16T07:35:12;100788.47;;;0.62;92.76
59877;BME280;45749;51.140;17.184;2023-03-16T07:37:37;100787.41;;;0.69;92.21
59877;BME280;45749;51.140;17.184;2023-03-16T07:40:03;100791.59;;;0.76;92.62
59877;BME280;45749;51.140;17.184;2023-03-16T07:42:31;100789.72;;;0.81;92.49
59877;BME280;45749;51.140;17.184;2023-03-16T07:44:57;100797.28;;;0.90;92.60
59877;BME280;45749;51.140;17.184;2023-03-16T07:47:23;100791.03;;;0.98;92.50
59877;BME280;45749;51.140;17.184;2023-03-16T07:49:50;100799.50;;;1.06;92.21
59877;BME280;45749;51.140;17.184;2023-03-16T07:52:15;100801.06;;;1.13;92.00
59877;BME280;45749;51.140;17.184;2023-03-16T07:54:41;100797.34;;;1.22;92.12
59877;BME280;45749;51.140;17.184;2023-03-16T07:57:06;100800.63;;;1.28;91.78
59877;BME280;45749;51.140;17.184;2023-03-16T07:59:32;100794.41;;;1.35;91.41
59877;BME280;45749;51.140;17.184;2023-03-16T08:01:57;100798.53;;;1.43;91.21
59877;BME280;45749;51.140;17.184;2023-03-16T08:04:22;100806.97;;;1.51;91.21
59877;BME280;45749;51.140;17.184;2023-03-16T08:06:48;100801.50;;;1.60;90.98
59877;BME280;45749;51.140;17.184;2023-03-16T08:09:16;100802.16;;;1.68;90.30
59877;BME280;45749;51.140;17.184;2023-03-16T08:11:42;100801.97;;;1.74;90.22
59877;BME280;45749;51.140;17.184;2023-03-16T08:14:07;100802.59;;;1.82;90.31
59877;BME280;45749;51.140;17.184;2023-03-16T08:16:34;100815.38;;;1.92;90.17
59877;BME280;45749;51.140;17.184;2023-03-16T08:18:59;100810.78;;;2.00;89.75
59877;BME280;45749;51.140;17.184;2023-03-16T08:21:25;100815.78;;;2.07;90.41
59877;BME280;45749;51.140;17.184;2023-03-16T08:23:52;100812.03;;;2.16;90.63
59877;BME280;45749;51.140;17.184;2023-03-16T08:26:22;100818.66;;;2.26;89.94
59877;BME280;45749;51.140;17.184;2023-03-16T08:28:50;100821.88;;;2.34;89.32
59877;BME280;45749;51.140;17.184;2023-03-16T08:31:16;100819.03;;;2.42;89.15
59877;BME280;45749;51.140;17.184;2023-03-16T08:33:43;100825.75;;;2.49;89.46
59877;BME280;45749;51.140;17.184;2023-03-16T08:36:11;100826.31;;;2.59;89.72
59877;BME280;45749;51.140;17.184;2023-03-16T08:38:38;100819.03;;;2.70;89.48
59877;BME280;45749;51.140;17.184;2023-03-16T08:41:11;100819.59;;;2.80;89.05
59877;BME280;45749;51.140;17.184;2023-03-16T08:43:38;100825.38;;;2.88;87.56
59877;BME280;45749;51.140;17.184;2023-03-16T08:46:03;100827.78;;;2.94;86.30
59877;BME280;45749;51.140;17.184;2023-03-16T08:48:30;100825.78;;;3.02;87.50
59877;BME280;45749;51.140;17.184;2023-03-16T08:51:00;100828.88;;;3.14;86.47
59877;BME280;45749;51.140;17.184;2023-03-16T08:53:26;100839.06;;;3.21;85.69
59877;BME280;45749;51.140;17.184;2023-03-16T08:56:00;100836.25;;;3.27;84.93
59877;BME280;45749;51.140;17.184;2023-03-16T08:58:26;100831.63;;;3.36;84.50
59877;BME280;45749;51.140;17.184;2023-03-16T09:00:51;100833.00;;;3.46;85.80
59877;BME280;45749;51.140;17.184;2023-03-16T09:03:17;100836.03;;;3.59;84.36
59877;BME280;45749;51.140;17.184;2023-03-16T09:05:42;100838.25;;;3.69;84.48
59877;BME280;45749;51.140;17.184;2023-03-16T09:08:07;100837.78;;;3.82;84.07
59877;BME280;45749;51.140;17.184;2023-03-16T09:10:33;100833.97;;;3.92;84.16
59877;BME280;45749;51.140;17.184;2023-03-16T09:13:00;100838.06;;;3.97;82.93
59877;BME280;45749;51.140;17.184;2023-03-16T09:15:26;100839.56;;;4.05;83.62
59877;BME280;45749;51.140;17.184;2023-03-16T09:17:53;100835.63;;;4.16;83.08
59877;BME280;45749;51.140;17.184;2023-03-16T09:20:19;100837.91;;;4.26;81.99
59877;BME280;45749;51.140;17.184;2023-03-16T09:22:45;100837.69;;;4.32;80.98
59877;BME280;45749;51.140;17.184;2023-03-16T09:25:11;100826.06;;;4.39;81.96
59877;BME280;45749;51.140;17.184;2023-03-16T09:27:36;100827.16;;;4.55;81.84
59877;BME280;45749;51.140;17.184;2023-03-16T09:30:03;100819.09;;;4.61;80.24
59877;BME280;45749;51.140;17.184;2023-03-16T09:32:29;100826.84;;;4.63;79.13
59877;BME280;45749;51.140;17.184;2023-03-16T09:34:55;100827.47;;;4.69;80.53
59877;BME280;45749;51.140;17.184;2023-03-16T09:37:21;100833.00;;;4.84;79.16
59877;BME280;45749;51.140;17.184;2023-03-16T09:39:47;100826.66;;;4.89;78.35
59877;BME280;45749;51.140;17.184;2023-03-16T09:42:35;100836.63;;;5.02;77.00
59877;BME280;45749;51.140;17.184;2023-03-16T09:45:25;100833.53;;;5.12;75.99
59877;BME280;45749;51.140;17.184;2023-03-16T09:47:56;100841.13;;;5.18;77.07
59877;BME280;45749;51.140;17.184;2023-03-16T09:50:32;100835.25;;;5.13;76.23
59877;BME280;45749;51.140;17.184;2023-03-16T09:55:47;100829.03;;;5.16;76.03
59877;BME280;45749;51.140;17.184;2023-03-16T09:58:18;100843.13;;;5.34;77.32
59877;BME280;45749;51.140;17.184;2023-03-16T10:00:57;100838.94;;;5.50;76.40
59877;BME280;45749;51.140;17.184;2023-03-16T10:06:16;100842.94;;;5.78;77.67
59877;BME280;45749;51.140;17.184;2023-03-16T10:08:44;100842.16;;;5.96;76.45
59877;BME280;45749;51.140;17.184;2023-03-16T10:11:27;100843.44;;;6.06;72.81
59877;BME280;45749;51.140;17.184;2023-03-16T10:16:49;100846.69;;;5.93;72.81
59877;BME280;45749;51.140;17.184;2023-03-16T10:19:18;100852.16;;;5.86;72.44
59877;BME280;45749;51.140;17.184;2023-03-16T10:21:44;100843.16;;;5.73;70.88
59877;BME280;45749;51.140;17.184;2023-03-16T10:27:14;100845.38;;;5.82;70.89
59877;BME280;45749;51.140;17.184;2023-03-16T10:29:43;100839.19;;;6.04;71.85
59877;BME280;45749;51.140;17.184;2023-03-16T10:32:16;100849.72;;;6.21;72.00
59877;BME280;45749;51.140;17.184;2023-03-16T10:34:47;100844.72;;;6.36;70.41
59877;BME280;45749;51.140;17.184;2023-03-16T10:37:17;100839.25;;;6.40;71.03
59877;BME280;45749;51.140;17.184;2023-03-16T10:39:47;100838.72;;;6.51;72.05
59877;BME280;45749;51.140;17.184;2023-03-16T10:42:15;100835.06;;;6.55;72.01
59877;BME280;45749;51.140;17.184;2023-03-16T10:44:41;100836.25;;;6.48;70.58
59877;BME280;45749;51.140;17.184;2023-03-16T10:47:16;100830.81;;;6.52;71.97
59877;BME280;45749;51.140;17.184;2023-03-16T10:49:43;100840.50;;;6.69;71.40
59877;BME280;45749;51.140;17.184;2023-03-16T10:52:34;100828.38;;;6.84;66.42
59877;BME280;45749;51.140;17.184;2023-03-16T10:55:22;100828.09;;;6.90;68.93
59877;BME280;45749;51.140;17.184;2023-03-16T10:57:50;100827.34;;;6.88;66.39
59877;BME280;45749;51.140;17.184;2023-03-16T11:00:29;100832.94;;;6.80;67.95
59877;BME280;45749;51.140;17.184;2023-03-16T11:02:58;100830.81;;;6.89;67.96
59877;BME280;45749;51.140;17.184;2023-03-16T11:05:29;100830.94;;;6.86;65.57
59877;BME280;45749;51.140;17.184;2023-03-16T11:10:34;100823.00;;;6.87;66.33
59877;BME280;45749;51.140;17.184;2023-03-16T11:13:04;100831.88;;;6.85;66.80
59877;BME280;45749;51.140;17.184;2023-03-16T11:15:41;100829.03;;;6.89;67.19
59877;BME280;45749;51.140;17.184;2023-03-16T11:18:19;100827.19;;;7.09;66.61
59877;BME280;45749;51.140;17.184;2023-03-16T11:20:48;100823.72;;;7.25;65.67
59877;BME280;45749;51.140;17.184;2023-03-16T11:23:16;100827.16;;;7.43;64.68
59877;BME280;45749;51.140;17.184;2023-03-16T11:25:48;100829.31;;;7.52;62.95
59877;BME280;45749;51.140;17.184;2023-03-16T11:28:37;100819.81;;;7.50;63.21
59877;BME280;45749;51.140;17.184;2023-03-16T11:31:22;100820.97;;;7.62;64.66
59877;BME280;45749;51.140;17.184;2023-03-16T11:33:52;100818.28;;;7.79;65.59
59877;BME280;45749;51.140;17.184;2023-03-16T11:36:34;100816.19;;;8.02;67.96
59877;BME280;45749;51.140;17.184;2023-03-16T11:39:10;100816.47;;;8.29;65.74
59877;BME280;45749;51.140;17.184;2023-03-16T11:50:08;100801.97;;;8.37;63.75
59877;BME280;45749;51.140;17.184;2023-03-16T11:55:24;100797.94;;;8.48;62.97
59877;BME280;45749;51.140;17.184;2023-03-16T12:14:46;100788.72;;;9.01;61.09
59877;BME280;45749;51.140;17.184;2023-03-16T12:17:19;100790.44;;;9.02;59.61
59877;BME280;45749;51.140;17.184;2023-03-16T12:19:57;100797.41;;;9.03;60.97
59877;BME280;45749;51.140;17.184;2023-03-16T12:22:28;100796.25;;;8.92;58.54
59877;BME280;45749;51.140;17.184;2023-03-16T12:24:56;100792.03;;;8.74;58.92
59877;BME280;45749;51.140;17.184;2023-03-16T12:27:34;100794.84;;;8.55;59.05
59877;BME280;45749;51.140;17.184;2023-03-16T12:32:49;100788.75;;;8.23;59.49
59877;BME280;45749;51.140;17.184;2023-03-16T12:35:33;100779.84;;;8.10;58.09
59877;BME280;45749;51.140;17.184;2023-03-16T12:38:37;100783.38;;;8.09;59.93
59877;BME280;45749;51.140;17.184;2023-03-16T12:41:32;100780.00;;;8.22;58.55
59877;BME280;45749;51.140;17.184;2023-03-16T12:49:36;100782.91;;;8.65;57.45
59877;BME280;45749;51.140;17.184;2023-03-16T12:52:05;100773.13;;;8.67;56.94
59877;BME280;45749;51.140;17.184;2023-03-16T12:54:32;100780.97;;;8.83;58.33
59877;BME280;45749;51.140;17.184;2023-03-16T12:57:06;100769.28;;;9.03;58.33
59877;BME280;45749;51.140;17.184;2023-03-16T12:59:41;100764.69;;;9.21;57.55
59877;BME280;45749;51.140;17.184;2023-03-16T13:02:16;100779.69;;;9.35;56.28
59877;BME280;45749;51.140;17.184;2023-03-16T13:04:46;100773.66;;;9.33;54.62
59877;BME280;45749;51.140;17.184;2023-03-16T13:07:19;100775.34;;;9.34;54.13
59877;BME280;45749;51.140;17.184;2023-03-16T13:09:50;100775.16;;;9.37;54.60
59877;BME280;45749;51.140;17.184;2023-03-16T13:12:25;100775.16;;;9.37;55.13
59877;BME280;45749;51.140;17.184;2023-03-16T13:14:51;100774.91;;;9.42;55.70
59877;BME280;45749;51.140;17.184;2023-03-16T13:19:57;100790.88;;;9.53;53.34
59877;BME280;45749;51.140;17.184;2023-03-16T13:27:53;100783.72;;;9.40;53.82
59877;BME280;45749;51.140;17.184;2023-03-16T13:30:24;100782.69;;;9.43;53.77
59877;BME280;45749;51.140;17.184;2023-03-16T13:32:54;100768.38;;;9.47;52.98
59877;BME280;45749;51.140;17.184;2023-03-16T13:35:25;100775.38;;;9.62;54.24
59877;BME280;45749;51.140;17.184;2023-03-16T13:37:51;100772.06;;;9.73;52.79
59877;BME280;45749;51.140;17.184;2023-03-16T13:40:25;100778.63;;;9.80;51.26
59877;BME280;45749;51.140;17.184;2023-03-16T13:42:52;100777.59;;;9.83;51.92
59877;BME280;45749;51.140;17.184;2023-03-16T13:45:29;100777.22;;;9.89;52.58
59877;BME280;45749;51.140;17.184;2023-03-16T13:47:57;100779.47;;;9.95;53.47
59877;BME280;45749;51.140;17.184;2023-03-16T13:50:22;100779.63;;;10.06;50.97
59877;BME280;45749;51.140;17.184;2023-03-16T13:52:59;100782.19;;;10.08;51.68
59877;BME280;45749;51.140;17.184;2023-03-16T13:55:34;100780.03;;;10.15;51.81
59877;BME280;45749;51.140;17.184;2023-03-16T13:58:01;100780.75;;;10.17;51.64
59877;BME280;45749;51.140;17.184;2023-03-16T14:00:33;100778.03;;;10.18;51.32
59877;BME280;45749;51.140;17.184;2023-03-16T14:03:07;100779.91;;;10.16;50.63